sensor_id;sensor_type;location;lat;lon;timestamp;pressure;altitude;pressure_sealevel;temperature;humidity
46836;BME280;32573;51.290;6.926;2023-03-14T00:02:17;97767.03;;;11.34;100.00
46836;BME280;32573;51.290;6.926;2023-03-14T00:04:48;97747.00;;;11.33;100.00
46836;BME280;32573;51.290;6.926;2023-03-14T00:07:17;97744.38;;;11.32;100.00
46836;BME280;32573;51.290;6.926;2023-03-14T00:09:45;97736.53;;;11.30;100.00
46836;BME280;32573;51.290;6.926;2023-03-14T00:12:14;97728.72;;;11.29;100.00
46836;BME280;32573;51.290;6.926;2023-03-14T00:14:42;97718.25;;;11.29;100.00
46836;BME280;32573;51.290;6.926;2023-03-14T00:17:11;97704.25;;;11.28;100.00
46836;BME280;32573;51.290;6.926;2023-03-14T00:19:40;97703.41;;;11.28;100.00
46836;BME280;32573;51.290;6.926;2023-03-14T00:22:10;97709.53;;;11.27;100.00
46836;BME280;32573;51.290;6.926;2023-03-14T00:24:39;97719.16;;;11.26;100.00
46836;BME280;32573;51.290;6.926;2023-03-14T00:27:07;97727.88;;;11.25;100.00
46836;BME280;32573;51.290;6.926;2023-03-14T00:29:36;97744.50;;;11.24;100.00
46836;BME280;32573;51.290;6.926;2023-03-14T00:32:04;97747.13;;;11.24;100.00
46836;BME280;32573;51.290;6.926;2023-03-14T00:34:33;97754.06;;;11.25;100.00
46836;BME280;32573;51.290;6.926;2023-03-14T00:37:02;97751.50;;;11.23;100.00
46836;BME280;32573;51.290;6.926;2023-03-14T00:39:32;97764.53;;;11.25;100.00
46836;BME280;32573;51.290;6.926;2023-03-14T00:42:01;97769.78;;;11.25;100.00
46836;BME280;32573;51.290;6.926;2023-03-14T00:44:29;97788.97;;;11.26;100.00
46836;BME280;32573;51.290;6.926;2023-03-14T00:46:58;97813.44;;;11.26;100.00
46836;BME280;32573;51.290;6.926;2023-03-14T00:49:27;97844.00;;;11.22;100.00
46836;BME280;32573;51.290;6.926;2023-03-14T00:51:56;97821.56;;;11.03;100.00
46836;BME280;32573;51.290;6.926;2023-03-14T00:54:25;97793.09;;;10.78;100.00
46836;BME280;32573;51.290;6.926;2023-03-14T00:56:55;97809.81;;;10.64;100.00
46836;BME280;32573;51.290;6.926;2023-03-14T00:59:23;97796.91;;;10.48;100.00
46836;BME280;32573;51.290;6.926;2023-03-14T01:01:52;97802.25;;;10.34;100.00
46836;BME280;32573;51.290;6.926;2023-03-14T01:04:20;97797.09;;;10.25;100.00
46836;BME280;32573;51.290;6.926;2023-03-14T01:06:49;97789.31;;;10.18;100.00
46836;BME280;32573;51.290;6.926;2023-03-14T01:09:17;97785.91;;;10.11;100.00
46836;BME280;32573;51.290;6.926;2023-03-14T01:11:47;97783.34;;;10.06;100.00
46836;BME280;32573;51.290;6.926;2023-03-14T01:14:18;97782.47;;;10.03;100.00
46836;BME280;32573;51.290;6.926;2023-03-14T01:16:46;97782.50;;;9.98;100.00
46836;BME280;32573;51.290;6.926;2023-03-14T01:19:15;97780.81;;;9.92;100.00
46836;BME280;32573;51.290;6.926;2023-03-14T01:21:43;97787.84;;;9.87;100.00
46836;BME280;32573;51.290;6.926;2023-03-14T01:24:12;97792.25;;;9.81;100.00
46836;BME280;32573;51.290;6.926;2023-03-14T01:26:41;97798.34;;;9.78;100.00
46836;BME280;32573;51.290;6.926;2023-03-14T01:29:09;97788.81;;;9.74;100.00
46836;BME280;32573;51.290;6.926;2023-03-14T01:31:40;97799.31;;;9.69;100.00
46836;BME280;32573;51.290;6.926;2023-03-14T01:34:08;97786.28;;;9.66;100.00
46836;BME280;32573;51.290;6.926;2023-03-14T01:36:37;97769.78;;;9.61;100.00
46836;BME280;32573;51.290;6.926;2023-03-14T01:39:06;97768.91;;;9.58;100.00
46836;BME280;32573;51.290;6.926;2023-03-14T01:41:36;97760.25;;;9.54;100.00
46836;BME280;32573;51.290;6.926;2023-03-14T01:44:05;97755.03;;;9.53;100.00
46836;BME280;32573;51.290;6.926;2023-03-14T01:46:39;97757.66;;;9.51;100.00
46836;BME280;32573;51.290;6.926;2023-03-14T01:49:15;97766.34;;;9.50;100.00
46836;BME280;32573;51.290;6.926;2023-03-14T01:51:56;97771.59;;;9.47;100.00
46836;BME280;32573;51.290;6.926;2023-03-14T01:54:29;97767.28;;;9.44;100.00
46836;BME280;32573;51.290;6.926;2023-03-14T01:57:04;97766.41;;;9.44;100.00
46836;BME280;32573;51.290;6.926;2023-03-14T01:59:36;97766.41;;;9.44;100.00
46836;BME280;32573;51.290;6.926;2023-03-14T02:02:07;97762.06;;;9.43;100.00
46836;BME280;32573;51.290;6.926;2023-03-14T02:04:38;97751.63;;;9.41;100.00
46836;BME280;32573;51.290;6.926;2023-03-14T02:07:12;97747.28;;;9.42;100.00
46836;BME280;32573;51.290;6.926;2023-03-14T02:09:54;97747.28;;;9.42;100.00
46836;BME280;32573;51.290;6.926;2023-03-14T02:12:27;97747.28;;;9.42;100.00
46836;BME280;32573;51.290;6.926;2023-03-14T02:15:18;97742.06;;;9.42;100.00
46836;BME280;32573;51.290;6.926;2023-03-14T02:17:57;97752.50;;;9.42;100.00
46836;BME280;32573;51.290;6.926;2023-03-14T02:20:49;97750.75;;;9.44;100.00
46836;BME280;32573;51.290;6.926;2023-03-14T02:23:27;97750.75;;;9.44;100.00
46836;BME280;32573;51.290;6.926;2023-03-14T02:26:02;97745.53;;;9.44;100.00
46836;BME280;32573;51.290;6.926;2023-03-14T02:28:34;97744.63;;;9.45;100.00
46836;BME280;32573;51.290;6.926;2023-03-14T02:31:04;97748.13;;;9.44;100.00
46836;BME280;32573;51.290;6.926;2023-03-14T02:33:35;97745.53;;;9.44;100.00
46836;BME280;32573;51.290;6.926;2023-03-14T02:36:10;97763.81;;;9.44;100.00
46836;BME280;32573;51.290;6.926;2023-03-14T02:38:45;97762.91;;;9.45;100.00
46836;BME280;32573;51.290;6.926;2023-03-14T02:41:16;97769.84;;;9.46;100.00
46836;BME280;32573;51.290;6.926;2023-03-14T02:43:53;97756.84;;;9.44;100.00
46836;BME280;32573;51.290;6.926;2023-03-14T02:46:21;97755.06;;;9.45;100.00
46836;BME280;32573;51.290;6.926;2023-03-14T02:48:53;97745.53;;;9.44;100.00
46836;BME280;32573;51.290;6.926;2023-03-14T02:51:24;97745.53;;;9.44;100.00
46836;BME280;32573;51.290;6.926;2023-03-14T02:53:54;97740.31;;;9.44;100.00
46836;BME280;32573;51.290;6.926;2023-03-14T02:56:25;97742.91;;;9.42;100.00
46836;BME280;32573;51.290;6.926;2023-03-14T02:58:55;97739.44;;;9.42;100.00
46836;BME280;32573;51.290;6.926;2023-03-14T03:01:35;97739.44;;;9.42;100.00
46836;BME280;32573;51.290;6.926;2023-03-14T03:04:04;97736.84;;;9.42;100.00
46836;BME280;32573;51.290;6.926;2023-03-14T03:06:32;97729.00;;;9.40;100.00
46836;BME280;32573;51.290;6.926;2023-03-14T03:09:01;97724.63;;;9.41;100.00
46836;BME280;32573;51.290;6.926;2023-03-14T03:11:29;97717.69;;;9.40;100.00
46836;BME280;32573;51.290;6.926;2023-03-14T03:14:00;97716.84;;;9.39;100.00
46836;BME280;32573;51.290;6.926;2023-03-14T03:16:29;97716.84;;;9.39;100.00
46836;BME280;32573;51.290;6.926;2023-03-14T03:18:57;97715.97;;;9.39;100.00
46836;BME280;32573;51.290;6.926;2023-03-14T03:21:26;97700.31;;;9.39;100.00
46836;BME280;32573;51.290;6.926;2023-03-14T03:23:54;97702.03;;;9.40;100.00
46836;BME280;32573;51.290;6.926;2023-03-14T03:26:23;97701.19;;;9.39;100.00
46836;BME280;32573;51.290;6.926;2023-03-14T03:28:51;97702.03;;;9.40;100.00
46836;BME280;32573;51.290;6.926;2023-03-14T03:31:23;97702.03;;;9.40;100.00
46836;BME280;32573;51.290;6.926;2023-03-14T03:33:52;97708.13;;;9.40;100.00
46836;BME280;32573;51.290;6.926;2023-03-14T03:36:21;97715.09;;;9.40;100.00
46836;BME280;32573;51.290;6.926;2023-03-14T03:38:50;97710.75;;;9.39;100.00
46836;BME280;32573;51.290;6.926;2023-03-14T03:41:22;97710.75;;;9.39;100.00
46836;BME280;32573;51.290;6.926;2023-03-14T03:43:52;97719.44;;;9.38;100.00
46836;BME280;32573;51.290;6.926;2023-03-14T03:46:21;97706.41;;;9.38;100.00
46836;BME280;32573;51.290;6.926;2023-03-14T03:48:55;97709.00;;;9.38;100.00
46836;BME280;32573;51.290;6.926;2023-03-14T03:51:26;97703.78;;;9.38;100.00
46836;BME280;32573;51.290;6.926;2023-03-14T03:53:55;97705.53;;;9.36;100.00
46836;BME280;32573;51.290;6.926;2023-03-14T03:56:30;97708.19;;;9.34;100.00
46836;BME280;32573;51.290;6.926;2023-03-14T03:58:59;97703.84;;;9.32;100.00
46836;BME280;32573;51.290;6.926;2023-03-14T04:01:28;97696.00;;;9.32;100.00
46836;BME280;32573;51.290;6.926;2023-03-14T04:04:00;97701.22;;;9.30;100.00
46836;BME280;32573;51.290;6.926;2023-03-14T04:06:29;97704.72;;;9.29;100.00
46836;BME280;32573;51.290;6.926;2023-03-14T04:09:00;97684.75;;;9.26;100.00
46836;BME280;32573;51.290;6.926;2023-03-14T04:11:37;97681.28;;;9.24;100.00
46836;BME280;32573;51.290;6.926;2023-03-14T04:14:21;97682.13;;;9.23;100.00
46836;BME280;32573;51.290;6.926;2023-03-14T04:17:04;97683.03;;;9.21;100.00
46836;BME280;32573;51.290;6.926;2023-03-14T04:19:34;97675.19;;;9.21;100.00
46836;BME280;32573;51.290;6.926;2023-03-14T04:22:02;97671.72;;;9.20;100.00
46836;BME280;32573;51.290;6.926;2023-03-14T04:24:36;97658.66;;;9.20;100.00
46836;BME280;32573;51.290;6.926;2023-03-14T04:27:05;97661.28;;;9.20;100.00
46836;BME280;32573;51.290;6.926;2023-03-14T04:29:34;97655.19;;;9.21;100.00
46836;BME280;32573;51.290;6.926;2023-03-14T04:32:03;97656.91;;;9.21;100.00
46836;BME280;32573;51.290;6.926;2023-03-14T04:34:33;97658.66;;;9.20;100.00
46836;BME280;32573;51.290;6.926;2023-03-14T04:37:02;97659.53;;;9.21;100.00
46836;BME280;32573;51.290;6.926;2023-03-14T04:39:36;97666.53;;;9.19;100.00
46836;BME280;32573;51.290;6.926;2023-03-14T04:42:11;97663.91;;;9.17;100.00
46836;BME280;32573;51.290;6.926;2023-03-14T04:44:40;97653.47;;;9.17;100.00
46836;BME280;32573;51.290;6.926;2023-03-14T04:47:11;97668.28;;;9.17;100.00
46836;BME280;32573;51.290;6.926;2023-03-14T04:49:42;97658.69;;;9.17;100.00
46836;BME280;32573;51.290;6.926;2023-03-14T04:52:13;97653.47;;;9.17;100.00
46836;BME280;32573;51.290;6.926;2023-03-14T04:54:42;97652.63;;;9.15;100.00
46836;BME280;32573;51.290;6.926;2023-03-14T04:57:11;97640.44;;;9.16;100.00
46836;BME280;32573;51.290;6.926;2023-03-14T04:59:40;97644.78;;;9.15;100.00
46836;BME280;32573;51.290;6.926;2023-03-14T05:02:31;97647.44;;;9.14;100.00
46836;BME280;32573;51.290;6.926;2023-03-14T05:05:09;97628.28;;;9.13;100.00
46836;BME280;32573;51.290;6.926;2023-03-14T05:08:01;97625.69;;;9.12;100.00
46836;BME280;32573;51.290;6.926;2023-03-14T05:10:57;97623.94;;;9.12;100.00
46836;BME280;32573;51.290;6.926;2023-03-14T05:13:37;97611.75;;;9.13;100.00
46836;BME280;32573;51.290;6.926;2023-03-14T05:16:44;97601.31;;;9.14;100.00
46836;BME280;32573;51.290;6.926;2023-03-14T05:19:24;97596.09;;;9.14;100.00
46836;BME280;32573;51.290;6.926;2023-03-14T05:22:06;97596.97;;;9.15;100.00
46836;BME280;32573;51.290;6.926;2023-03-14T05:24:57;97595.22;;;9.15;100.00
46836;BME280;32573;51.290;6.926;2023-03-14T05:27:58;97585.66;;;9.14;100.00
46836;BME280;32573;51.290;6.926;2023-03-14T05:30:47;97589.13;;;9.13;100.00
46836;BME280;32573;51.290;6.926;2023-03-14T05:33:32;97590.03;;;9.12;100.00
46836;BME280;32573;51.290;6.926;2023-03-14T05:36:13;97593.53;;;9.11;100.00
46836;BME280;32573;51.290;6.926;2023-03-14T05:38:43;97587.41;;;9.11;100.00
46836;BME280;32573;51.290;6.926;2023-03-14T05:41:34;97583.09;;;9.10;100.00
46836;BME280;32573;51.290;6.926;2023-03-14T05:44:21;97575.25;;;9.08;100.00
46836;BME280;32573;51.290;6.926;2023-03-14T05:47:04;97582.22;;;9.09;100.00
46836;BME280;32573;51.290;6.926;2023-03-14T05:49:42;97581.38;;;9.09;100.00
46836;BME280;32573;51.290;6.926;2023-03-14T05:52:33;97577.00;;;9.09;100.00
46836;BME280;32573;51.290;6.926;2023-03-14T05:55:19;97579.63;;;9.07;100.00
46836;BME280;32573;51.290;6.926;2023-03-14T05:58:02;97581.38;;;9.09;100.00
46836;BME280;32573;51.290;6.926;2023-03-14T06:00:46;97571.78;;;9.09;100.00
46836;BME280;32573;51.290;6.926;2023-03-14T06:03:31;97574.41;;;9.09;100.00
46836;BME280;32573;51.290;6.926;2023-03-14T06:05:59;97573.53;;;9.09;100.00
46836;BME280;32573;51.290;6.926;2023-03-14T06:08:28;97588.31;;;9.10;100.00
46836;BME280;32573;51.290;6.926;2023-03-14T06:10:58;97580.47;;;9.11;100.00
46836;BME280;32573;51.290;6.926;2023-03-14T06:13:30;97579.59;;;9.11;100.00
46836;BME280;32573;51.290;6.926;2023-03-14T06:15:58;97580.47;;;9.11;100.00
46836;BME280;32573;51.290;6.926;2023-03-14T06:18:27;97576.97;;;9.12;100.00
46836;BME280;32573;51.290;6.926;2023-03-14T06:20:56;97578.69;;;9.13;100.00
46836;BME280;32573;51.290;6.926;2023-03-14T06:23:26;97588.28;;;9.14;100.00
46836;BME280;32573;51.290;6.926;2023-03-14T06:25:59;97580.44;;;9.14;100.00
46836;BME280;32573;51.290;6.926;2023-03-14T06:28:28;97589.13;;;9.16;100.00
46836;BME280;32573;51.290;6.926;2023-03-14T06:31:00;97583.03;;;9.17;100.00
46836;BME280;32573;51.290;6.926;2023-03-14T06:33:34;97591.72;;;9.19;100.00
46836;BME280;32573;51.290;6.926;2023-03-14T06:36:04;97589.97;;;9.20;100.00
46836;BME280;32573;51.290;6.926;2023-03-14T06:38:33;97586.47;;;9.21;100.00
46836;BME280;32573;51.290;6.926;2023-03-14T06:41:06;97581.25;;;9.22;100.00
46836;BME280;32573;51.290;6.926;2023-03-14T06:43:39;97591.69;;;9.24;100.00
46836;BME280;32573;51.290;6.926;2023-03-14T06:46:09;97589.03;;;9.25;100.00
46836;BME280;32573;51.290;6.926;2023-03-14T06:48:39;97593.38;;;9.26;100.00
46836;BME280;32573;51.290;6.926;2023-03-14T06:51:08;97595.09;;;9.27;100.00
46836;BME280;32573;51.290;6.926;2023-03-14T06:53:36;97602.94;;;9.29;100.00
46836;BME280;32573;51.290;6.926;2023-03-14T06:56:08;97595.09;;;9.29;100.00
46836;BME280;32573;51.290;6.926;2023-03-14T06:58:37;97597.69;;;9.31;100.00
46836;BME280;32573;51.290;6.926;2023-03-14T07:01:19;97594.22;;;9.32;100.00
46836;BME280;32573;51.290;6.926;2023-03-14T07:03:49;97601.16;;;9.33;100.00
46836;BME280;32573;51.290;6.926;2023-03-14T07:06:18;97595.94;;;9.34;100.00
46836;BME280;32573;51.290;6.926;2023-03-14T07:08:47;97593.28;;;9.36;100.00
46836;BME280;32573;51.290;6.926;2023-03-14T07:11:18;97597.66;;;9.37;100.00
46836;BME280;32573;51.290;6.926;2023-03-14T07:13:47;97596.75;;;9.38;100.00
46836;BME280;32573;51.290;6.926;2023-03-14T07:16:16;97601.97;;;9.39;100.00
46836;BME280;32573;51.290;6.926;2023-03-14T07:18:44;97605.44;;;9.41;100.00
46836;BME280;32573;51.290;6.926;2023-03-14T07:21:15;97608.00;;;9.43;100.00
46836;BME280;32573;51.290;6.926;2023-03-14T07:23:43;97608.88;;;9.45;100.00
46836;BME280;32573;51.290;6.926;2023-03-14T07:26:13;97613.19;;;9.46;100.00
46836;BME280;32573;51.290;6.926;2023-03-14T07:28:49;97621.94;;;9.46;100.00
46836;BME280;32573;51.290;6.926;2023-03-14T07:31:19;97620.16;;;9.47;100.00
46836;BME280;32573;51.290;6.926;2023-03-14T07:33:48;97619.31;;;9.46;100.00
46836;BME280;32573;51.290;6.926;2023-03-14T07:36:18;97621.03;;;9.47;100.00
46836;BME280;32573;51.290;6.926;2023-03-14T07:38:47;97618.41;;;9.49;100.00
46836;BME280;32573;51.290;6.926;2023-03-14T07:41:31;97626.22;;;9.50;100.00
46836;BME280;32573;51.290;6.926;2023-03-14T07:44:20;97629.69;;;9.53;100.00
46836;BME280;32573;51.290;6.926;2023-03-14T07:46:48;97616.63;;;9.54;100.00
46836;BME280;32573;51.290;6.926;2023-03-14T07:49:18;97621.81;;;9.56;100.00
46836;BME280;32573;51.290;6.926;2023-03-14T07:51:52;97626.13;;;9.58;100.00
46836;BME280;32573;51.290;6.926;2023-03-14T07:54:20;97628.75;;;9.61;100.00
46836;BME280;32573;51.290;6.926;2023-03-14T07:56:49;97627.84;;;9.64;100.00
46836;BME280;32573;51.290;6.926;2023-03-14T07:59:17;97628.69;;;9.66;100.00
46836;BME280;32573;51.290;6.926;2023-03-14T08:01:47;97626.06;;;9.69;100.00
46836;BME280;32573;51.290;6.926;2023-03-14T08:04:16;97629.53;;;9.71;100.00
46836;BME280;32573;51.290;6.926;2023-03-14T08:06:44;97625.97;;;9.75;100.00
46836;BME280;32573;51.290;6.926;2023-03-14T08:09:13;97637.28;;;9.79;100.00
46836;BME280;32573;51.290;6.926;2023-03-14T08:11:41;97633.72;;;9.83;100.00
46836;BME280;32573;51.290;6.926;2023-03-14T08:14:09;97646.75;;;9.89;100.00
46836;BME280;32573;51.290;6.926;2023-03-14T08:16:39;97638.88;;;9.93;100.00
46836;BME280;32573;51.290;6.926;2023-03-14T08:19:08;97633.56;;;9.98;100.00
46836;BME280;32573;51.290;6.926;2023-03-14T08:21:37;97629.19;;;10.02;100.00
46836;BME280;32573;51.290;6.926;2023-03-14T08:24:06;97634.38;;;10.06;100.00
46836;BME280;32573;51.290;6.926;2023-03-14T08:26:34;97628.19;;;10.10;100.00
46836;BME280;32573;51.290;6.926;2023-03-14T08:29:03;97636.84;;;10.15;100.00
46836;BME280;32573;51.290;6.926;2023-03-14T08:31:31;97633.34;;;10.18;100.00
46836;BME280;32573;51.290;6.926;2023-03-14T08:34:00;97648.13;;;10.21;100.00
46836;BME280;32573;51.290;6.926;2023-03-14T08:36:30;97649.81;;;10.23;100.00
46836;BME280;32573;51.290;6.926;2023-03-14T08:38:59;97640.22;;;10.25;100.00
46836;BME280;32573;51.290;6.926;2023-03-14T08:41:27;97635.00;;;10.27;100.00
46836;BME280;32573;51.290;6.926;2023-03-14T08:43:56;97643.72;;;10.29;100.00
46836;BME280;32573;51.290;6.926;2023-03-14T08:46:24;97629.75;;;10.30;100.00
46836;BME280;32573;51.290;6.926;2023-03-14T08:48:53;97643.66;;;10.33;100.00
46836;BME280;32573;51.290;6.926;2023-03-14T08:51:21;97641.91;;;10.34;100.00
46836;BME280;32573;51.290;6.926;2023-03-14T08:53:51;97644.53;;;10.34;100.00
46836;BME280;32573;51.290;6.926;2023-03-14T08:56:20;97654.94;;;10.35;100.00
46836;BME280;32573;51.290;6.926;2023-03-14T08:58:52;97659.31;;;10.35;100.00
46836;BME280;32573;51.290;6.926;2023-03-14T09:01:20;97664.59;;;10.32;100.00
46836;BME280;32573;51.290;6.926;2023-03-14T09:03:51;97676.81;;;10.30;100.00
46836;BME280;32573;51.290;6.926;2023-03-14T09:06:19;97678.56;;;10.28;100.00
46836;BME280;32573;51.290;6.926;2023-03-14T09:08:48;97682.06;;;10.27;100.00
46836;BME280;32573;51.290;6.926;2023-03-14T09:11:18;97686.41;;;10.26;100.00
46836;BME280;32573;51.290;6.926;2023-03-14T09:13:46;97699.50;;;10.25;100.00
46836;BME280;32573;51.290;6.926;2023-03-14T09:16:15;97697.78;;;10.24;100.00
46836;BME280;32573;51.290;6.926;2023-03-14T09:18:44;97714.34;;;10.21;100.00
46836;BME280;32573;51.290;6.926;2023-03-14T09:21:12;97704.75;;;10.20;100.00
46836;BME280;32573;51.290;6.926;2023-03-14T09:23:41;97706.53;;;10.20;100.00
46836;BME280;32573;51.290;6.926;2023-03-14T09:26:12;97723.09;;;10.17;100.00
46836;BME280;32573;51.290;6.926;2023-03-14T09:28:42;97736.22;;;10.12;100.00
46836;BME280;32573;51.290;6.926;2023-03-14T09:31:11;97785.91;;;10.08;100.00
46836;BME280;32573;51.290;6.926;2023-03-14T09:33:40;97796.47;;;9.97;100.00
46836;BME280;32573;51.290;6.926;2023-03-14T09:36:09;97797.50;;;9.78;100.00
46836;BME280;32573;51.290;6.926;2023-03-14T09:38:37;97822.88;;;9.56;100.00
46836;BME280;32573;51.290;6.926;2023-03-14T09:41:14;97838.66;;;9.36;100.00
46836;BME280;32573;51.290;6.926;2023-03-14T09:43:45;97845.69;;;9.23;100.00
46836;BME280;32573;51.290;6.926;2023-03-14T09:46:15;97864.03;;;9.12;100.00
46836;BME280;32573;51.290;6.926;2023-03-14T09:48:44;97883.19;;;9.03;100.00
46836;BME280;32573;51.290;6.926;2023-03-14T09:51:15;97881.47;;;8.95;100.00
46836;BME280;32573;51.290;6.926;2023-03-14T09:53:46;97899.75;;;8.85;100.00
46836;BME280;32573;51.290;6.926;2023-03-14T09:56:18;97911.94;;;8.77;100.00
46836;BME280;32573;51.290;6.926;2023-03-14T09:58:51;97904.16;;;8.71;100.00
46836;BME280;32573;51.290;6.926;2023-03-14T10:01:25;97923.25;;;8.61;100.00
46836;BME280;32573;51.290;6.926;2023-03-14T10:03:57;97918.06;;;8.55;100.00
46836;BME280;32573;51.290;6.926;2023-03-14T10:06:28;97928.50;;;8.52;100.00
46836;BME280;32573;51.290;6.926;2023-03-14T10:08:57;97926.75;;;8.48;100.00
46836;BME280;32573;51.290;6.926;2023-03-14T10:11:26;97942.41;;;8.48;100.00
46836;BME280;32573;51.290;6.926;2023-03-14T10:14:07;97949.38;;;8.49;100.00
46836;BME280;32573;51.290;6.926;2023-03-14T10:16:41;97957.19;;;8.47;100.00
46836;BME280;32573;51.290;6.926;2023-03-14T10:19:12;97971.94;;;8.43;100.00
46836;BME280;32573;51.290;6.926;2023-03-14T10:21:41;97978.91;;;8.41;100.00
46836;BME280;32573;51.290;6.926;2023-03-14T10:24:19;97980.63;;;8.39;100.00
46836;BME280;32573;51.290;6.926;2023-03-14T10:26:49;98000.59;;;8.39;100.00
46836;BME280;32573;51.290;6.926;2023-03-14T10:29:19;97999.69;;;8.35;100.00
46836;BME280;32573;51.290;6.926;2023-03-14T10:31:54;98006.63;;;8.33;100.00
46836;BME280;32573;51.290;6.926;2023-03-14T10:34:25;98020.56;;;8.32;100.00
46836;BME280;32573;51.290;6.926;2023-03-14T10:36:56;98034.47;;;8.31;100.00
46836;BME280;32573;51.290;6.926;2023-03-14T10:39:37;98038.78;;;8.28;100.00
46836;BME280;32573;51.290;6.926;2023-03-14T10:42:15;98059.63;;;8.28;100.00
46836;BME280;32573;51.290;6.926;2023-03-14T10:44:48;98072.66;;;8.26;100.00
46836;BME280;32573;51.290;6.926;2023-03-14T10:47:21;98095.22;;;8.21;100.00
46836;BME280;32573;51.290;6.926;2023-03-14T10:49:50;98102.19;;;8.19;100.00
46836;BME280;32573;51.290;6.926;2023-03-14T10:52:21;98103.88;;;8.15;100.00
46836;BME280;32573;51.290;6.926;2023-03-14T10:55:08;98121.22;;;8.07;100.00
46836;BME280;32573;51.290;6.926;2023-03-14T10:57:38;98123.81;;;8.03;100.00
46836;BME280;32573;51.290;6.926;2023-03-14T11:00:15;98147.25;;;7.96;100.00
46836;BME280;32573;51.290;6.926;2023-03-14T11:02:58;98150.66;;;7.89;100.00
46836;BME280;32573;51.290;6.926;2023-03-14T11:05:33;98174.06;;;7.83;100.00
46836;BME280;32573;51.290;6.926;2023-03-14T11:08:09;98198.34;;;7.77;100.00
46836;BME280;32573;51.290;6.926;2023-03-14T11:10:39;98205.22;;;7.71;100.00
46836;BME280;32573;51.290;6.926;2023-03-14T11:13:15;98214.69;;;7.60;100.00
46836;BME280;32573;51.290;6.926;2023-03-14T11:15:51;98228.50;;;7.49;100.00
46836;BME280;32573;51.290;6.926;2023-03-14T11:18:42;98242.31;;;7.42;100.00
46836;BME280;32573;51.290;6.926;2023-03-14T11:21:17;98244.00;;;7.34;100.00
46836;BME280;32573;51.290;6.926;2023-03-14T11:23:50;98248.28;;;7.29;100.00
46836;BME280;32573;51.290;6.926;2023-03-14T11:26:28;98255.19;;;7.28;100.00
46836;BME280;32573;51.290;6.926;2023-03-14T11:29:12;98267.34;;;7.31;100.00
46836;BME280;32573;51.290;6.926;2023-03-14T11:31:46;98269.97;;;7.31;100.00
46836;BME280;32573;51.290;6.926;2023-03-14T11:34:16;98283.88;;;7.33;100.00
46836;BME280;32573;51.290;6.926;2023-03-14T11:36:51;98299.50;;;7.34;100.00
46836;BME280;32573;51.290;6.926;2023-03-14T11:39:21;98309.00;;;7.31;100.00
46836;BME280;32573;51.290;6.926;2023-03-14T11:41:53;98316.75;;;7.25;100.00
46836;BME280;32573;51.290;6.926;2023-03-14T11:44:28;98325.34;;;7.18;100.00
46836;BME280;32573;51.290;6.926;2023-03-14T11:47:04;98327.00;;;7.12;100.00
46836;BME280;32573;51.290;6.926;2023-03-14T11:49:37;98333.03;;;7.08;100.00
46836;BME280;32573;51.290;6.926;2023-03-14T11:52:12;98346.88;;;7.06;100.00
46836;BME280;32573;51.290;6.926;2023-03-14T11:54:43;98351.16;;;7.02;100.00
46836;BME280;32573;51.290;6.926;2023-03-14T11:57:16;98356.34;;;6.99;100.00
46836;BME280;32573;51.290;6.926;2023-03-14T11:59:50;98358.03;;;6.97;100.00
46836;BME280;32573;51.290;6.926;2023-03-14T12:02:26;98368.41;;;6.96;100.00
46836;BME280;32573;51.290;6.926;2023-03-14T12:05:30;98375.34;;;6.95;100.00
46836;BME280;32573;51.290;6.926;2023-03-14T12:08:27;98388.28;;;6.90;100.00
46836;BME280;32573;51.290;6.926;2023-03-14T12:11:00;98400.34;;;6.85;100.00
46836;BME280;32573;51.290;6.926;2023-03-14T12:13:33;98406.38;;;6.83;100.00
46836;BME280;32573;51.290;6.926;2023-03-14T12:16:05;98417.66;;;6.82;100.00
46836;BME280;32573;51.290;6.926;2023-03-14T12:18:37;98417.66;;;6.82;100.00
46836;BME280;32573;51.290;6.926;2023-03-14T12:21:11;98432.34;;;6.80;100.00
46836;BME280;32573;51.290;6.926;2023-03-14T12:23:42;98449.66;;;6.78;100.00
46836;BME280;32573;51.290;6.926;2023-03-14T12:26:15;98451.34;;;6.76;100.00
46836;BME280;32573;51.290;6.926;2023-03-14T12:28:49;98464.38;;;6.77;100.00
46836;BME280;32573;51.290;6.926;2023-03-14T12:31:37;98469.59;;;6.79;100.00
46836;BME280;32573;51.290;6.926;2023-03-14T12:34:32;98473.97;;;6.80;100.00
46836;BME280;32573;51.290;6.926;2023-03-14T12:37:06;98480.00;;;6.79;100.00
46836;BME280;32573;51.290;6.926;2023-03-14T12:39:45;98501.66;;;6.78;100.00
46836;BME280;32573;51.290;6.926;2023-03-14T12:42:18;98501.66;;;6.78;100.00
46836;BME280;32573;51.290;6.926;2023-03-14T12:45:14;98505.19;;;6.83;100.00
46836;BME280;32573;51.290;6.926;2023-03-14T12:50:44;98511.50;;;6.99;100.00
46836;BME280;32573;51.290;6.926;2023-03-14T12:56:24;98545.47;;;7.06;100.00
46836;BME280;32573;51.290;6.926;2023-03-14T12:59:19;98560.16;;;7.06;100.00
46836;BME280;32573;51.290;6.926;2023-03-14T13:01:55;98575.78;;;7.04;100.00
46836;BME280;32573;51.290;6.926;2023-03-14T13:04:29;98593.03;;;7.01;100.00
46836;BME280;32573;51.290;6.926;2023-03-14T13:07:12;98599.88;;;6.96;100.00
46836;BME280;32573;51.290;6.926;2023-03-14T13:12:46;98620.56;;;6.88;100.00
46836;BME280;32573;51.290;6.926;2023-03-14T13:15:22;98621.34;;;6.84;100.00
46836;BME280;32573;51.290;6.926;2023-03-14T13:17:54;98627.44;;;6.84;100.00
46836;BME280;32573;51.290;6.926;2023-03-14T13:20:29;98637.84;;;6.84;100.00
46836;BME280;32573;51.290;6.926;2023-03-14T13:22:59;98643.13;;;6.89;100.00
46836;BME280;32573;51.290;6.926;2023-03-14T13:25:32;98647.53;;;6.91;100.00
46836;BME280;32573;51.290;6.926;2023-03-14T13:28:01;98657.16;;;6.97;100.00
46836;BME280;32573;51.290;6.926;2023-03-14T13:30:38;98657.22;;;7.02;100.00
46836;BME280;32573;51.290;6.926;2023-03-14T13:33:12;98662.41;;;7.00;100.00
46836;BME280;32573;51.290;6.926;2023-03-14T13:35:43;98685.75;;;6.97;100.00
46836;BME280;32573;51.290;6.926;2023-03-14T13:38:18;98701.22;;;6.91;100.00